Time;durP1;ratioP1;P1;durP2;ratioP2;P2;SDS_P1;SDS_P2;PMS_P1;PMS_P2;Temp;Humidity;BMP_temperature;BMP_pressure;BME280_temperature;BME280_humidity;BME280_pressure;Samples;Min_cycle;Max_cycle;Signal;HPM_P1;HPM_P2
2023/07/10 00:01:50;;;;;;;7.10;5.90;;;24.70;99.90;;;;;;5018452;28;20228;-65
2023/07/10 00:04:19;;;;;;;7.80;6.25;;;24.70;99.90;;;;;;5019071;28;20189;-65
2023/07/10 00:06:46;;;;;;;7.72;6.22;;;24.70;99.90;;;;;;5016123;28;20212;-65
2023/07/10 00:09:12;;;;;;;7.07;6.20;;;24.70;99.90;;;;;;5019526;28;20189;-65
2023/07/10 00:11:38;;;;;;;9.48;6.45;;;24.60;99.90;;;;;;5015633;28;20179;-66
2023/07/10 00:14:20;;;;;;;10.80;7.00;;;24.60;99.90;;;;;;5027907;28;20194;-65
2023/07/10 00:16:46;;;;;;;6.82;6.13;;;24.60;99.90;;;;;;5001776;28;20174;-65
2023/07/10 00:19:13;;;;;;;6.90;6.20;;;24.60;99.90;;;;;;5035284;28;20245;-65
2023/07/10 00:21:45;;;;;;;6.45;5.72;;;24.50;99.90;;;;;;5018720;28;20197;-65
2023/07/10 00:24:13;;;;;;;8.77;6.50;;;24.50;99.90;;;;;;5018613;28;20174;-63
2023/07/10 00:26:40;;;;;;;7.95;6.70;;;24.50;99.90;;;;;;5018608;28;20193;-65
2023/07/10 00:29:25;;;;;;;7.20;5.90;;;24.50;99.90;;;;;;5018948;28;20336;-66
2023/07/10 00:31:50;;;;;;;7.97;6.32;;;24.50;99.90;;;;;;5017322;28;20201;-65
2023/07/10 00:34:25;;;;;;;6.72;6.03;;;24.40;99.90;;;;;;5015320;28;20174;-63
2023/07/10 00:36:55;;;;;;;7.28;6.43;;;24.40;99.90;;;;;;5016710;28;20193;-65
2023/07/10 00:39:30;;;;;;;7.03;6.15;;;24.40;99.90;;;;;;5018012;28;20174;-64
2023/07/10 00:42:08;;;;;;;10.00;6.57;;;24.40;99.90;;;;;;5017993;28;20177;-65
2023/07/10 00:44:38;;;;;;;7.10;5.95;;;24.40;99.90;;;;;;5025179;28;20193;-64
2023/07/10 00:47:13;;;;;;;7.82;7.03;;;24.40;99.90;;;;;;5002226;28;20181;-65
2023/07/10 00:49:51;;;;;;;6.20;5.60;;;24.50;99.90;;;;;;5031300;28;20206;-66
2023/07/10 00:52:29;;;;;;;8.23;6.55;;;24.50;99.90;;;;;;5018359;28;20204;-66
2023/07/10 00:54:59;;;;;;;8.30;6.50;;;24.50;99.90;;;;;;5017940;28;20347;-65
2023/07/10 00:57:35;;;;;;;8.48;6.93;;;24.50;99.90;;;;;;5014726;28;20263;-66
2023/07/10 01:00:13;;;;;;;8.88;7.00;;;24.50;99.90;;;;;;5013528;28;20178;-64
2023/07/10 01:02:39;;;;;;;7.18;6.32;;;24.50;99.90;;;;;;5013210;28;20217;-64
2023/07/10 01:05:05;;;;;;;8.85;7.25;;;24.50;99.90;;;;;;5033620;28;20246;-65
2023/07/10 01:07:38;;;;;;;7.82;6.97;;;24.50;99.90;;;;;;5026072;28;20189;-65
2023/07/10 01:10:08;;;;;;;9.30;7.03;;;24.50;99.90;;;;;;5018915;28;20186;-65
2023/07/10 01:12:34;;;;;;;10.20;7.43;;;24.50;99.90;;;;;;5016952;28;20224;-65
2023/07/10 01:15:00;;;;;;;8.80;7.47;;;24.50;99.90;;;;;;4999914;28;20175;-66
2023/07/10 01:17:28;;;;;;;9.20;7.28;;;24.50;99.90;;;;;;5012990;28;20278;-65
2023/07/10 01:19:59;;;;;;;9.70;7.18;;;24.50;99.90;;;;;;5014733;28;20179;-66
2023/07/10 01:22:28;;;;;;;9.23;7.22;;;24.50;99.90;;;;;;5015114;28;20174;-65
2023/07/10 01:24:59;;;;;;;8.27;6.85;;;24.50;99.90;;;;;;5018066;28;20193;-65
2023/07/10 01:27:28;;;;;;;8.40;7.25;;;24.40;99.90;;;;;;5018085;28;20178;-67
2023/07/10 01:30:01;;;;;;;9.55;7.88;;;24.40;99.90;;;;;;5005435;28;20191;-65
2023/07/10 01:32:28;;;;;;;10.20;8.38;;;24.40;99.90;;;;;;5019176;28;20422;-65
2023/07/10 01:34:59;;;;;;;9.35;7.95;;;24.40;99.90;;;;;;5017291;28;20170;-65
2023/07/10 01:37:27;;;;;;;8.23;7.30;;;24.40;99.90;;;;;;5017794;28;20180;-65
2023/07/10 01:39:55;;;;;;;9.00;7.03;;;24.40;99.90;;;;;;5017339;28;20174;-65
2023/07/10 01:42:24;;;;;;;7.93;6.75;;;24.30;99.90;;;;;;5016420;28;20201;-65
2023/07/10 01:44:50;;;;;;;8.23;6.45;;;24.30;99.90;;;;;;5014934;28;20188;-65
2023/07/10 01:47:18;;;;;;;7.10;6.47;;;24.30;99.90;;;;;;5010476;28;20213;-65
2023/07/10 01:50:03;;;;;;;8.07;7.10;;;24.30;99.90;;;;;;5017277;28;20198;-65
2023/07/10 01:52:28;;;;;;;7.40;6.65;;;24.30;99.90;;;;;;5016953;28;20190;-65
2023/07/10 01:54:56;;;;;;;8.15;7.07;;;24.30;99.90;;;;;;5027706;28;20208;-65
2023/07/10 01:57:25;;;;;;;11.00;8.00;;;24.30;99.90;;;;;;5017544;28;20178;-66
2023/07/10 01:59:52;;;;;;;11.25;7.15;;;24.30;99.90;;;;;;5017489;28;20197;-64
2023/07/10 02:02:18;;;;;;;10.70;7.70;;;24.30;99.90;;;;;;5030764;28;20202;-64
2023/07/10 02:04:49;;;;;;;8.95;7.90;;;24.20;99.90;;;;;;5033054;28;20272;-64
2023/07/10 02:07:14;;;;;;;9.30;7.45;;;24.30;99.90;;;;;;5011021;28;20186;-64
2023/07/10 02:09:40;;;;;;;9.90;8.05;;;24.20;99.90;;;;;;5005847;28;20200;-65
2023/07/10 02:12:06;;;;;;;8.80;7.47;;;24.20;99.90;;;;;;5017791;28;20210;-64
2023/07/10 02:14:31;;;;;;;9.15;8.25;;;24.20;99.90;;;;;;5014164;28;20265;-66
2023/07/10 02:16:57;;;;;;;13.27;9.30;;;24.20;99.90;;;;;;5020148;28;20309;-66
2023/07/10 02:19:25;;;;;;;10.38;8.13;;;24.20;99.90;;;;;;5020408;28;20324;-65
2023/07/10 02:21:50;;;;;;;14.88;10.27;;;24.20;99.90;;;;;;5010459;28;20285;-65
2023/07/10 02:24:16;;;;;;;11.63;9.60;;;24.20;99.90;;;;;;5017508;28;20252;-65
2023/07/10 02:26:42;;;;;;;13.82;9.88;;;24.20;99.90;;;;;;5017807;28;20189;-65
2023/07/10 02:29:10;;;;;;;12.15;9.48;;;24.20;99.90;;;;;;5011797;28;20201;-64
2023/07/10 02:31:35;;;;;;;10.55;9.40;;;24.20;99.90;;;;;;5025830;28;20255;-64
2023/07/10 02:34:03;;;;;;;11.02;9.27;;;24.10;99.90;;;;;;5033052;28;20182;-65
2023/07/10 02:36:29;;;;;;;12.07;9.05;;;24.10;99.90;;;;;;5024693;28;20198;-65
2023/07/10 02:38:55;;;;;;;10.93;8.35;;;24.10;99.90;;;;;;5018232;28;20273;-65
2023/07/10 02:41:21;;;;;;;10.75;8.40;;;24.10;99.90;;;;;;5016697;28;20426;-64
2023/07/10 02:43:48;;;;;;;10.15;8.68;;;24.10;99.90;;;;;;5033946;28;20181;-66
2023/07/10 02:46:14;;;;;;;11.00;8.32;;;24.10;99.90;;;;;;5005911;28;20269;-64
2023/07/10 02:48:42;;;;;;;9.68;8.15;;;24.00;99.90;;;;;;5016847;28;20305;-64
2023/07/10 02:51:10;;;;;;;9.63;7.53;;;24.00;99.90;;;;;;5033470;28;20177;-64
2023/07/10 02:53:36;;;;;;;8.35;7.38;;;23.90;99.90;;;;;;5016994;28;20198;-65
2023/07/10 02:56:01;;;;;;;9.32;7.28;;;23.90;99.90;;;;;;5017041;28;20271;-65
2023/07/10 02:58:28;;;;;;;8.57;7.30;;;23.90;99.90;;;;;;5016475;28;20194;-65
2023/07/10 03:00:58;;;;;;;8.93;6.55;;;23.80;99.90;;;;;;5018527;28;20178;-64
2023/07/10 03:03:25;;;;;;;9.93;7.32;;;23.80;99.90;;;;;;5013691;28;20209;-65
2023/07/10 03:06:01;;;;;;;7.82;6.65;;;23.70;99.90;;;;;;5016060;28;20175;-65
2023/07/10 03:08:28;;;;;;;7.82;6.68;;;23.70;99.90;;;;;;5022024;28;20240;-65
2023/07/10 03:11:01;;;;;;;9.73;7.00;;;23.70;99.90;;;;;;5020191;28;20182;-65
2023/07/10 03:13:31;;;;;;;7.80;6.30;;;23.70;99.90;;;;;;5030208;28;20206;-65
2023/07/10 03:16:09;;;;;;;10.05;7.65;;;23.60;99.90;;;;;;5037150;28;20194;-65
2023/07/10 03:18:36;;;;;;;8.77;7.18;;;23.60;99.90;;;;;;5030185;28;20281;-64
2023/07/10 03:21:03;;;;;;;10.18;7.18;;;23.50;99.90;;;;;;5048589;28;20269;-65
2023/07/10 03:23:29;;;;;;;8.65;7.75;;;23.50;99.90;;;;;;5037005;28;20235;-64
2023/07/10 03:25:55;;;;;;;9.38;7.45;;;23.50;99.90;;;;;;5037025;28;20178;-65
2023/07/10 03:28:25;;;;;;;8.73;7.38;;;23.40;99.90;;;;;;5025155;28;20225;-65
2023/07/10 03:30:52;;;;;;;14.05;9.23;;;23.40;99.90;;;;;;5020292;28;20170;-65
2023/07/10 03:33:21;;;;;;;8.85;7.45;;;23.30;99.90;;;;;;5036525;28;20190;-64
2023/07/10 03:35:48;;;;;;;10.68;7.75;;;23.30;99.90;;;;;;5017917;28;20390;-65
2023/07/10 03:38:15;;;;;;;9.73;8.18;;;23.30;99.90;;;;;;5011167;28;20202;-64
2023/07/10 03:40:56;;;;;;;10.50;7.97;;;23.20;99.90;;;;;;5007020;28;20194;-64
2023/07/10 03:43:22;;;;;;;10.82;8.43;;;23.20;99.90;;;;;;5016987;28;20445;-65
2023/07/10 03:45:50;;;;;;;12.23;9.55;;;23.20;99.90;;;;;;5019147;28;20272;-64
2023/07/10 03:48:16;;;;;;;13.43;9.50;;;23.10;99.90;;;;;;5032343;28;20510;-65
2023/07/10 03:50:42;;;;;;;12.57;9.18;;;23.10;99.90;;;;;;5019220;28;20185;-66
2023/07/10 03:53:10;;;;;;;9.55;8.27;;;23.00;99.90;;;;;;5034297;28;20206;-66
2023/07/10 03:55:36;;;;;;;10.73;8.30;;;23.00;99.90;;;;;;5019114;28;20173;-65
2023/07/10 03:58:01;;;;;;;11.52;9.20;;;23.00;99.90;;;;;;5019977;28;20261;-64
2023/07/10 04:00:27;;;;;;;12.43;9.73;;;22.90;99.90;;;;;;5018516;28;20198;-64
2023/07/10 04:02:53;;;;;;;12.25;8.85;;;22.90;99.90;;;;;;5016853;28;20206;-64
2023/07/10 04:05:18;;;;;;;10.70;9.13;;;22.90;99.90;;;;;;5033547;28;20178;-63
2023/07/10 04:07:46;;;;;;;10.82;8.93;;;22.90;99.90;;;;;;5019036;28;20206;-65
2023/07/10 04:10:13;;;;;;;11.25;8.68;;;22.90;99.90;;;;;;5036485;28;20182;-64
2023/07/10 04:12:45;;;;;;;9.93;7.97;;;22.90;99.90;;;;;;5013886;28;20209;-66
2023/07/10 04:15:10;;;;;;;10.80;8.75;;;22.90;99.90;;;;;;5029150;28;20178;-65
2023/07/10 04:17:36;;;;;;;10.80;9.57;;;22.90;99.90;;;;;;5023231;28;20196;-64
2023/07/10 04:20:04;;;;;;;10.52;9.02;;;22.90;99.90;;;;;;5017447;28;20226;-64
2023/07/10 04:22:32;;;;;;;10.32;9.18;;;22.90;99.90;;;;;;5014753;28;20186;-64
2023/07/10 04:25:05;;;;;;;12.40;9.88;;;22.90;99.90;;;;;;5018390;28;20356;-65
2023/07/10 04:27:33;;;;;;;13.52;10.65;;;22.90;99.90;;;;;;5015945;28;20202;-64
2023/07/10 04:30:01;;;;;;;13.57;11.18;;;22.90;99.90;;;;;;5017069;28;20327;-66
2023/07/10 04:32:27;;;;;;;15.23;11.77;;;22.90;99.90;;;;;;5014660;28;20210;-64
2023/07/10 04:34:55;;;;;;;14.30;11.00;;;22.90;99.90;;;;;;5019053;28;20196;-64
2023/07/10 04:37:23;;;;;;;14.90;11.68;;;22.80;99.90;;;;;;5021433;28;20174;-65
2023/07/10 04:39:48;;;;;;;14.80;11.00;;;22.80;99.90;;;;;;5016691;28;20228;-64
2023/07/10 04:42:14;;;;;;;14.63;10.13;;;22.80;99.90;;;;;;5018804;28;20362;-66
2023/07/10 04:44:39;;;;;;;12.35;9.60;;;22.80;99.90;;;;;;5018701;28;20226;-65
2023/07/10 04:47:05;;;;;;;11.85;9.95;;;22.80;99.90;;;;;;5013396;28;20180;-65
2023/07/10 04:49:33;;;;;;;12.60;9.55;;;22.80;99.90;;;;;;5018713;28;20190;-66
2023/07/10 04:52:03;;;;;;;13.05;9.77;;;22.80;99.90;;;;;;5018555;28;20251;-66
2023/07/10 04:54:31;;;;;;;10.70;9.00;;;22.80;99.90;;;;;;5017721;28;20182;-65
2023/07/10 04:56:57;;;;;;;12.20;9.88;;;22.80;99.90;;;;;;5018859;28;20193;-66
2023/07/10 04:59:22;;;;;;;11.43;9.57;;;22.80;99.90;;;;;;5018387;28;20228;-66
2023/07/10 05:01:48;;;;;;;12.15;9.23;;;22.80;99.90;;;;;;5015307;28;20174;-66
2023/07/10 05:04:18;;;;;;;12.93;9.20;;;22.80;99.90;;;;;;5018143;28;20225;-67
2023/07/10 05:06:46;;;;;;;12.65;9.40;;;22.80;99.90;;;;;;5018399;28;20192;-65
2023/07/10 05:09:12;;;;;;;13.02;9.27;;;22.70;99.90;;;;;;5017982;28;20224;-65
2023/07/10 05:11:40;;;;;;;13.65;9.57;;;22.80;99.90;;;;;;5018250;28;20281;-66
2023/07/10 05:14:05;;;;;;;16.48;11.00;;;22.70;99.90;;;;;;5017270;28;20174;-65
2023/07/10 05:16:33;;;;;;;12.63;9.38;;;22.70;99.90;;;;;;5018516;28;20321;-66
2023/07/10 05:19:01;;;;;;;13.82;9.30;;;22.70;99.90;;;;;;5017616;28;20170;-66
2023/07/10 05:21:27;;;;;;;11.32;8.30;;;22.70;99.90;;;;;;5020320;28;20205;-66
2023/07/10 05:23:52;;;;;;;12.98;9.50;;;22.70;99.90;;;;;;5014556;28;20182;-66
2023/07/10 05:26:21;;;;;;;11.70;8.82;;;22.70;99.90;;;;;;5019961;28;20185;-66
2023/07/10 05:28:47;;;;;;;12.00;8.98;;;22.70;99.90;;;;;;5007968;28;20202;-67
2023/07/10 05:31:17;;;;;;;9.00;7.03;;;22.60;99.90;;;;;;5012091;28;20185;-67
2023/07/10 05:33:43;;;;;;;14.40;8.02;;;22.60;99.90;;;;;;5022159;28;20213;-67
2023/07/10 05:36:13;;;;;;;11.20;8.15;;;22.60;99.90;;;;;;5031192;28;20178;-68
2023/07/10 05:38:40;;;;;;;12.38;7.30;;;22.60;99.90;;;;;;5018149;28;20162;-66
2023/07/10 05:41:09;;;;;;;10.93;6.90;;;22.60;99.90;;;;;;5017616;28;20244;-66
2023/07/10 05:43:35;;;;;;;10.73;6.75;;;22.60;99.90;;;;;;5017975;28;20189;-66
2023/07/10 05:46:02;;;;;;;9.80;7.30;;;22.60;99.90;;;;;;5016775;28;20230;-66
2023/07/10 05:48:28;;;;;;;10.00;6.15;;;22.60;99.90;;;;;;5017964;28;20185;-65
2023/07/10 05:50:54;;;;;;;11.35;7.28;;;22.60;99.90;;;;;;5033327;28;20182;-66
2023/07/10 05:53:21;;;;;;;12.65;6.75;;;22.60;99.90;;;;;;5017825;28;20210;-66
2023/07/10 05:55:49;;;;;;;11.40;6.38;;;22.60;99.90;;;;;;5023697;28;20201;-65
2023/07/10 05:58:15;;;;;;;10.55;6.65;;;22.60;99.90;;;;;;5017439;28;20204;-66
2023/07/10 06:00:42;;;;;;;10.05;6.25;;;22.60;99.90;;;;;;5017461;28;20242;-65
2023/07/10 06:03:08;;;;;;;9.73;6.30;;;22.60;99.90;;;;;;5018209;28;20178;-66
2023/07/10 06:05:36;;;;;;;9.27;5.90;;;22.60;99.90;;;;;;5017596;28;20202;-66
2023/07/10 06:08:02;;;;;;;9.55;6.00;;;22.60;99.90;;;;;;5017509;28;20272;-66
2023/07/10 06:10:35;;;;;;;9.43;6.32;;;22.60;99.90;;;;;;5014180;28;20274;-65
2023/07/10 06:13:00;;;;;;;7.95;5.45;;;22.60;99.90;;;;;;5007810;28;20198;-65
2023/07/10 06:15:29;;;;;;;8.27;5.10;;;22.60;99.90;;;;;;5017505;28;20176;-66
2023/07/10 06:17:54;;;;;;;9.02;5.20;;;22.70;99.90;;;;;;5017636;28;20185;-64
2023/07/10 06:20:20;;;;;;;10.15;4.97;;;22.60;99.90;;;;;;5016148;28;20187;-65
2023/07/10 06:22:48;;;;;;;9.20;5.47;;;22.60;99.90;;;;;;5018204;28;20174;-66
2023/07/10 06:25:14;;;;;;;8.18;5.05;;;22.70;99.90;;;;;;5016779;28;20209;-65
2023/07/10 06:27:39;;;;;;;8.10;4.72;;;22.60;99.90;;;;;;5014204;28;20186;-65
2023/07/10 06:30:06;;;;;;;8.48;4.82;;;22.60;99.90;;;;;;5014480;28;20185;-64
2023/07/10 06:32:34;;;;;;;6.40;4.82;;;22.60;99.90;;;;;;5014710;28;20206;-65
2023/07/10 06:35:05;;;;;;;8.40;5.03;;;22.60;99.90;;;;;;5017079;28;20174;-64
2023/07/10 06:37:31;;;;;;;7.22;4.35;;;22.60;99.90;;;;;;5017188;28;20201;-65
2023/07/10 06:40:07;;;;;;;7.78;4.90;;;22.60;99.90;;;;;;5030668;28;20193;-65
2023/07/10 06:42:35;;;;;;;7.90;5.30;;;22.70;99.90;;;;;;5017458;28;20182;-64
2023/07/10 06:45:01;;;;;;;7.10;4.57;;;22.80;99.90;;;;;;5027859;28;20197;-65
2023/07/10 06:47:36;;;;;;;6.82;5.10;;;22.80;99.90;;;;;;5020813;28;20174;-65
2023/07/10 06:50:01;;;;;;;7.30;4.72;;;22.80;99.90;;;;;;5020620;28;20213;-66
2023/07/10 06:52:27;;;;;;;7.60;5.18;;;22.90;99.90;;;;;;5020482;28;20973;-65
2023/07/10 06:54:52;;;;;;;9.45;5.75;;;22.90;99.90;;;;;;5020339;28;20232;-65
2023/07/10 06:57:19;;;;;;;8.38;5.45;;;23.00;99.90;;;;;;5021005;28;20204;-65
2023/07/10 06:59:44;;;;;;;9.05;5.93;;;23.00;99.90;;;;;;5020679;28;20261;-65
2023/07/10 07:02:13;;;;;;;6.57;5.10;;;23.00;99.90;;;;;;5020774;28;20204;-65
2023/07/10 07:04:40;;;;;;;7.53;5.07;;;23.00;99.90;;;;;;5020572;28;20174;-65
2023/07/10 07:07:07;;;;;;;9.88;6.07;;;23.10;99.90;;;;;;5020353;28;20192;-64
2023/07/10 07:09:34;;;;;;;9.80;6.05;;;23.10;99.90;;;;;;5019570;28;20194;-66
2023/07/10 07:12:05;;;;;;;8.20;5.63;;;23.20;99.90;;;;;;5017217;28;20198;-65
2023/07/10 07:14:36;;;;;;;8.05;6.28;;;23.20;99.90;;;;;;5020651;28;20185;-65
2023/07/10 07:17:01;;;;;;;8.40;6.38;;;23.30;99.90;;;;;;5020307;28;20194;-67
2023/07/10 07:19:29;;;;;;;9.88;7.47;;;23.30;99.90;;;;;;5020488;28;20184;-65
2023/07/10 07:21:55;;;;;;;10.90;7.10;;;23.30;99.90;;;;;;5019950;28;20174;-62
2023/07/10 07:24:21;;;;;;;11.55;7.30;;;23.40;99.90;;;;;;5028234;28;20174;-65
2023/07/10 07:26:46;;;;;;;8.27;6.75;;;23.40;99.90;;;;;;5019654;28;20174;-66
2023/07/10 07:29:12;;;;;;;8.27;6.70;;;23.50;99.90;;;;;;5025204;28;20200;-66
2023/07/10 07:31:39;;;;;;;8.95;6.60;;;23.50;99.90;;;;;;5019739;28;20185;-65
2023/07/10 07:34:05;;;;;;;8.13;5.88;;;23.60;99.90;;;;;;5019794;28;20193;-67
2023/07/10 07:36:34;;;;;;;7.85;6.57;;;23.60;99.90;;;;;;5019288;28;20182;-63
2023/07/10 07:39:05;;;;;;;9.55;6.20;;;23.70;99.90;;;;;;5036607;28;20236;-65
2023/07/10 07:41:34;;;;;;;8.00;5.45;;;23.70;99.90;;;;;;5033293;28;20198;-66
2023/07/10 07:44:01;;;;;;;7.70;6.40;;;23.70;99.90;;;;;;5016421;28;20268;-67
2023/07/10 07:46:27;;;;;;;8.57;6.30;;;23.80;99.90;;;;;;5024228;28;20252;-66
2023/07/10 07:48:53;;;;;;;9.40;6.18;;;23.80;99.90;;;;;;5011344;28;20214;-66
2023/07/10 07:51:19;;;;;;;7.47;5.63;;;23.80;99.90;;;;;;5019751;28;20174;-66
2023/07/10 07:53:44;;;;;;;8.10;5.95;;;23.80;99.90;;;;;;5036356;28;20193;-66
2023/07/10 07:56:10;;;;;;;7.28;5.75;;;23.80;99.90;;;;;;5016808;28;20268;-65
2023/07/10 07:58:36;;;;;;;7.30;5.43;;;23.90;99.90;;;;;;5018447;28;20177;-66
2023/07/10 08:01:04;;;;;;;8.25;6.43;;;23.90;99.90;;;;;;5019180;28;20197;-66
2023/07/10 08:03:32;;;;;;;7.68;5.85;;;23.90;99.90;;;;;;5018467;28;20174;-66
2023/07/10 08:06:02;;;;;;;7.72;5.75;;;24.00;99.90;;;;;;5020434;28;20202;-66
2023/07/10 08:08:28;;;;;;;7.63;5.50;;;24.00;99.90;;;;;;5018906;28;20252;-66
2023/07/10 08:10:53;;;;;;;8.60;5.63;;;24.10;99.90;;;;;;5033271;28;20181;-67
2023/07/10 08:13:21;;;;;;;7.13;4.97;;;24.10;99.90;;;;;;5035593;28;20263;-65
2023/07/10 08:15:49;;;;;;;6.80;4.05;;;24.10;99.90;;;;;;5016544;28;20175;-65
2023/07/10 08:18:15;;;;;;;5.85;4.10;;;24.10;99.90;;;;;;5016928;28;20186;-65
2023/07/10 08:20:43;;;;;;;5.15;3.50;;;24.20;99.90;;;;;;5016906;28;20209;-66
2023/07/10 08:23:08;;;;;;;5.80;3.80;;;24.30;99.90;;;;;;5018975;28;20190;-67
2023/07/10 08:25:36;;;;;;;5.30;3.70;;;24.40;99.90;;;;;;5022411;28;20200;-67
2023/07/10 08:28:04;;;;;;;4.38;3.35;;;24.50;99.90;;;;;;5018979;28;20178;-66
2023/07/10 08:30:32;;;;;;;4.82;3.58;;;24.60;99.90;;;;;;5018524;28;20193;-67
2023/07/10 08:32:58;;;;;;;4.40;3.90;;;24.70;99.90;;;;;;5020282;28;20197;-65
2023/07/10 08:35:23;;;;;;;6.28;3.67;;;24.80;99.90;;;;;;5018895;28;20174;-65
2023/07/10 08:37:50;;;;;;;5.22;3.63;;;24.90;99.90;;;;;;5017435;28;20170;-66
2023/07/10 08:40:37;;;;;;;5.47;3.60;;;25.00;99.90;;;;;;5008755;28;20326;-65
2023/07/10 08:43:37;;;;;;;4.28;3.25;;;25.10;99.90;;;;;;5017842;28;20200;-67
2023/07/10 08:46:11;;;;;;;4.70;3.38;;;25.20;99.90;;;;;;5007506;28;20248;-67
2023/07/10 08:48:43;;;;;;;5.38;3.55;;;25.10;99.90;;;;;;5018527;28;20279;-66
2023/07/10 08:51:14;;;;;;;4.20;3.10;;;25.20;99.90;;;;;;5015983;28;20231;-66
2023/07/10 08:53:43;;;;;;;4.13;3.28;;;25.20;99.90;;;;;;4999652;28;20290;-67
2023/07/10 08:56:18;;;;;;;5.18;3.53;;;25.20;99.90;;;;;;5029689;28;20178;-67
2023/07/10 08:58:44;;;;;;;3.80;2.97;;;25.20;99.90;;;;;;5018134;28;20209;-66
2023/07/10 09:01:24;;;;;;;3.47;2.80;;;25.20;99.90;;;;;;5018062;28;20174;-64
2023/07/10 09:03:51;;;;;;;6.13;3.03;;;25.20;99.90;;;;;;5017225;28;20223;-65
2023/07/10 09:06:28;;;;;;;5.68;3.15;;;25.20;99.90;;;;;;5015126;28;20189;-64
2023/07/10 09:08:55;;;;;;;4.45;2.65;;;25.20;99.90;;;;;;5017587;28;20181;-66
2023/07/10 09:11:23;;;;;;;4.28;2.40;;;25.20;99.90;;;;;;5016449;28;20292;-66
2023/07/10 09:14:11;;;;;;;4.13;2.47;;;25.20;99.90;;;;;;5018090;28;20186;-66
2023/07/10 09:16:37;;;;;;;3.65;2.40;;;25.20;99.90;;;;;;5013851;28;20181;-66
2023/07/10 09:19:09;;;;;;;3.40;2.17;;;25.30;99.90;;;;;;5014597;28;20398;-66
2023/07/10 09:21:39;;;;;;;3.53;2.53;;;25.40;99.90;;;;;;5018430;28;20173;-66
2023/07/10 09:24:05;;;;;;;4.18;2.28;;;25.40;99.90;;;;;;5018196;28;20209;-65
2023/07/10 09:26:39;;;;;;;4.03;2.42;;;25.60;99.90;;;;;;5017488;28;20240;-66
2023/07/10 09:29:25;;;;;;;3.08;2.13;;;25.70;99.90;;;;;;5014762;28;20240;-67
2023/07/10 09:32:10;;;;;;;4.57;2.05;;;25.70;99.90;;;;;;5014853;28;20209;-64
2023/07/10 09:34:41;;;;;;;3.55;2.30;;;25.80;99.90;;;;;;5015000;28;20159;-66
2023/07/10 09:37:11;;;;;;;3.65;2.40;;;25.90;99.90;;;;;;5014496;28;20281;-67
2023/07/10 09:39:39;;;;;;;2.33;1.90;;;26.00;99.90;;;;;;5017552;28;20280;-66
2023/07/10 09:42:15;;;;;;;2.70;1.73;;;26.00;99.90;;;;;;5014456;28;20178;-66
2023/07/10 09:44:54;;;;;;;3.78;1.70;;;26.00;99.90;;;;;;5017738;28;20192;-66
2023/07/10 09:47:21;;;;;;;2.55;1.60;;;26.10;99.90;;;;;;5017126;28;20178;-67
2023/07/10 09:49:54;;;;;;;2.58;1.75;;;26.00;99.90;;;;;;5017580;28;20244;-66
2023/07/10 09:52:31;;;;;;;2.25;1.60;;;26.00;99.90;;;;;;5020395;28;20284;-67
2023/07/10 09:55:03;;;;;;;2.00;1.40;;;26.00;99.90;;;;;;5034152;28;20172;-67
2023/07/10 09:57:29;;;;;;;1.77;1.48;;;26.10;99.90;;;;;;5017459;28;20268;-67
2023/07/10 09:59:59;;;;;;;2.50;1.67;;;26.20;99.90;;;;;;5017749;28;20201;-66
2023/07/10 10:02:32;;;;;;;4.53;1.67;;;26.30;99.90;;;;;;5017510;28;20206;-67
2023/07/10 10:05:19;;;;;;;2.85;1.50;;;26.40;99.90;;;;;;5017809;28;20189;-66
2023/07/10 10:07:50;;;;;;;3.47;1.70;;;26.60;99.90;;;;;;5017966;28;20239;-67
2023/07/10 10:10:22;;;;;;;2.28;1.50;;;26.70;99.90;;;;;;5017470;28;20193;-67
2023/07/10 10:13:19;;;;;;;2.25;1.60;;;26.70;99.90;;;;;;5016236;28;20198;-65
2023/07/10 10:15:49;;;;;;;2.17;1.55;;;26.80;99.90;;;;;;5005684;28;20205;-67
2023/07/10 10:18:31;;;;;;;2.80;1.60;;;26.80;99.90;;;;;;5037097;28;20263;-67
2023/07/10 10:20:57;;;;;;;2.35;1.60;;;26.90;99.90;;;;;;5021796;28;20363;-67
2023/07/10 10:23:34;;;;;;;1.40;1.30;;;27.00;99.90;;;;;;5021958;28;20189;-67
2023/07/10 10:26:22;;;;;;;2.05;1.40;;;27.00;99.90;;;;;;5018205;28;20178;-66
2023/07/10 10:28:59;;;;;;;2.35;1.65;;;27.00;99.90;;;;;;5001853;28;20202;-66
2023/07/10 10:31:33;;;;;;;2.17;1.40;;;27.00;99.90;;;;;;5004889;28;20283;-66
2023/07/10 10:34:11;;;;;;;2.70;1.40;;;27.10;99.90;;;;;;5021255;28;20202;-67
2023/07/10 10:36:36;;;;;;;2.60;1.40;;;27.10;99.90;;;;;;5037591;28;20162;-67
2023/07/10 10:39:10;;;;;;;3.22;1.58;;;27.20;99.90;;;;;;5037679;28;20185;-66
2023/07/10 10:42:12;;;;;;;1.83;1.20;;;27.30;99.90;;;;;;5025500;28;20465;-66
2023/07/10 10:45:02;;;;;;;1.50;1.10;;;27.40;99.90;;;;;;5005573;28;20423;-67
2023/07/10 10:48:12;;;;;;;2.08;1.02;;;27.70;99.90;;;;;;5019480;28;20253;-66
2023/07/10 10:50:55;;;;;;;1.90;1.30;;;28.00;99.90;;;;;;5001576;28;20186;-65
2023/07/10 10:53:34;;;;;;;2.15;1.40;;;28.30;99.90;;;;;;5017508;28;20213;-68
2023/07/10 10:56:10;;;;;;;1.50;1.30;;;28.60;99.90;;;;;;5033111;28;20173;-65
2023/07/10 10:58:38;;;;;;;1.70;1.08;;;28.90;99.90;;;;;;5021096;28;20373;-67
2023/07/10 11:01:13;;;;;;;2.55;1.50;;;29.10;99.90;;;;;;5021062;28;20210;-66
2023/07/10 11:03:54;;;;;;;2.20;1.50;;;29.30;99.90;;;;;;5020143;28;20173;-67
2023/07/10 11:06:26;;;;;;;2.72;1.25;;;29.50;99.90;;;;;;5020274;28;20170;-67
2023/07/10 11:08:58;;;;;;;1.95;1.10;;;29.60;99.90;;;;;;5020521;28;20188;-65
2023/07/10 11:11:33;;;;;;;2.25;1.67;;;29.70;99.90;;;;;;5020724;28;20185;-66
2023/07/10 11:14:02;;;;;;;2.20;1.52;;;29.90;99.90;;;;;;5020805;28;20220;-69
2023/07/10 11:16:33;;;;;;;2.65;1.40;;;30.00;99.90;;;;;;5020605;28;20174;-66
2023/07/10 11:19:03;;;;;;;1.83;1.30;;;30.00;99.90;;;;;;5020365;28;20174;-66
2023/07/10 11:21:30;;;;;;;2.63;1.10;;;30.10;99.90;;;;;;5020510;28;20174;-66
2023/07/10 11:23:56;;;;;;;6.82;1.60;;;30.20;99.90;;;;;;5020433;28;20181;-66
2023/07/10 11:26:27;;;;;;;2.00;1.13;;;30.30;99.90;;;;;;5020157;28;20204;-67
2023/07/10 11:28:54;;;;;;;2.10;1.25;;;30.30;99.90;;;;;;5020177;28;20260;-66
2023/07/10 11:31:31;;;;;;;2.03;1.40;;;30.30;99.90;;;;;;5020510;28;20185;-66
2023/07/10 11:34:06;;;;;;;2.78;1.48;;;30.40;99.90;;;;;;5020350;28;20200;-67
2023/07/10 11:36:45;;;;;;;2.00;1.50;;;30.40;99.90;;;;;;5020250;28;20196;-66
2023/07/10 11:39:29;;;;;;;1.77;1.15;;;30.30;99.60;;;;;;5019863;28;20193;-67
2023/07/10 11:41:57;;;;;;;2.78;1.52;;;30.30;99.90;;;;;;5020495;28;20161;-67
2023/07/10 11:44:29;;;;;;;3.50;1.40;;;30.30;99.90;;;;;;5020177;28;20165;-67
2023/07/10 11:46:59;;;;;;;3.03;1.33;;;30.30;99.20;;;;;;5019961;28;20193;-66
2023/07/10 11:49:49;;;;;;;2.17;1.33;;;30.30;99.30;;;;;;5036403;28;20207;-64
2023/07/10 11:52:15;;;;;;;1.45;1.00;;;30.40;98.90;;;;;;5021708;28;20224;-66
2023/07/10 11:54:47;;;;;;;2.28;1.17;;;30.50;99.90;;;;;;5004713;28;20177;-65
2023/07/10 11:57:22;;;;;;;2.30;1.20;;;30.70;99.90;;;;;;5014928;28;20251;-67
2023/07/10 11:59:59;;;;;;;2.20;1.08;;;30.90;99.30;;;;;;5019721;28;20180;-67
2023/07/10 12:02:37;;;;;;;2.35;1.13;;;31.10;98.90;;;;;;5019824;28;20268;-67
2023/07/10 12:05:13;;;;;;;1.90;1.27;;;31.30;98.50;;;;;;5019386;28;20220;-67
2023/07/10 12:07:49;;;;;;;1.55;1.00;;;31.50;97.80;;;;;;5035567;28;20227;-67
2023/07/10 12:10:18;;;;;;;2.70;1.70;;;31.60;96.20;;;;;;5019888;28;20201;-67
2023/07/10 12:12:43;;;;;;;1.92;1.48;;;31.50;96.00;;;;;;5019846;28;20232;-66
2023/07/10 12:15:13;;;;;;;1.73;1.20;;;31.40;96.60;;;;;;5019693;28;20204;-67
2023/07/10 12:17:40;;;;;;;2.35;1.30;;;31.30;96.10;;;;;;5019651;28;20189;-67
2023/07/10 12:20:27;;;;;;;1.55;1.02;;;31.20;95.60;;;;;;5036028;28;20182;-67
2023/07/10 12:23:00;;;;;;;1.83;1.20;;;31.00;94.10;;;;;;5019248;28;20201;-66
2023/07/10 12:25:28;;;;;;;1.98;1.55;;;30.80;95.30;;;;;;5019641;28;20177;-66
2023/07/10 12:28:00;;;;;;;2.40;1.33;;;30.80;95.40;;;;;;5024699;28;20170;-68
2023/07/10 12:30:27;;;;;;;2.03;1.30;;;30.80;94.80;;;;;;5018720;28;20212;-64
2023/07/10 12:32:54;;;;;;;1.42;1.05;;;30.70;94.70;;;;;;5019020;28;20201;-65
2023/07/10 12:35:27;;;;;;;1.63;1.10;;;30.70;94.60;;;;;;5019118;28;20323;-64
2023/07/10 12:37:55;;;;;;;1.77;1.10;;;30.80;93.70;;;;;;5013741;28;20178;-65
2023/07/10 12:40:20;;;;;;;2.35;1.15;;;30.80;94.50;;;;;;5013956;28;20224;-65
2023/07/10 12:42:47;;;;;;;4.55;1.20;;;30.80;94.30;;;;;;5015435;28;20206;-62
2023/07/10 12:45:33;;;;;;;1.88;1.20;;;30.90;94.30;;;;;;5015783;28;20165;-67
2023/07/10 12:48:15;;;;;;;2.40;1.05;;;31.00;93.00;;;;;;5015738;28;20189;-66
2023/07/10 12:50:56;;;;;;;2.08;1.13;;;31.30;93.00;;;;;;4999348;28;20193;-66
2023/07/10 12:53:32;;;;;;;1.67;0.90;;;31.50;91.60;;;;;;5018140;28;20201;-67
2023/07/10 12:56:08;;;;;;;1.50;1.20;;;31.50;91.20;;;;;;5008253;28;20212;-67
2023/07/10 12:58:37;;;;;;;4.50;1.13;;;31.50;91.40;;;;;;5018789;28;20169;-67